createdAt,value
2023-04-24T06:07:13.242Z,3.92
2023-04-24T06:09:42.892Z,3.03
2023-04-24T06:12:11.360Z,3.67
2023-04-24T06:14:40.728Z,3.22
2023-04-24T06:17:11.092Z,4.00
2023-04-24T06:19:41.905Z,3.05
2023-04-24T06:22:10.995Z,3.40
2023-04-24T06:24:39.391Z,3.10
2023-04-24T06:27:07.623Z,3.53
2023-04-24T06:29:37.996Z,3.30
2023-04-24T06:32:06.345Z,2.37
2023-04-24T06:34:35.365Z,2.75
2023-04-24T06:37:03.934Z,2.83
2023-04-24T06:39:32.079Z,2.62
2023-04-24T06:42:00.245Z,2.83
2023-04-24T06:44:28.573Z,2.60
2023-04-24T06:47:06.286Z,3.12
2023-04-24T06:49:34.883Z,2.78
2023-04-24T06:52:02.700Z,2.05
2023-04-24T06:54:31.428Z,2.67
2023-04-24T06:57:01.971Z,2.53
2023-04-24T06:59:30.250Z,2.10
2023-04-24T07:01:58.212Z,2.75
2023-04-24T07:04:26.846Z,3.15
2023-04-24T07:06:59.127Z,2.90
2023-04-24T07:09:27.818Z,3.00
2023-04-24T07:11:57.774Z,2.75
2023-04-24T07:14:25.689Z,3.47
2023-04-24T07:16:53.989Z,2.65
2023-04-24T07:19:21.997Z,2.47
2023-04-24T07:22:03.324Z,3.12
2023-04-24T07:24:33.729Z,3.87
2023-04-24T07:27:04.824Z,2.65
2023-04-24T07:29:32.959Z,3.00
2023-04-24T07:32:02.680Z,3.00
2023-04-24T07:34:31.848Z,3.42
2023-04-24T07:37:00.368Z,2.10
2023-04-24T07:39:29.153Z,2.20
2023-04-24T07:41:57.233Z,2.12
2023-04-24T07:44:25.639Z,2.10
2023-04-24T07:46:53.760Z,2.33
2023-04-24T07:49:21.827Z,2.80
2023-04-24T07:51:51.562Z,2.05
2023-04-24T07:54:19.442Z,1.65
2023-04-24T07:56:47.388Z,2.20
2023-04-24T07:59:15.739Z,2.00
2023-04-24T08:01:43.765Z,2.28
2023-04-24T08:04:12.160Z,2.17
2023-04-24T08:06:40.180Z,2.67
2023-04-24T08:09:08.878Z,2.12
2023-04-24T08:11:37.186Z,2.40
2023-04-24T08:14:05.029Z,2.00
2023-04-24T08:16:34.960Z,2.60
2023-04-24T08:19:15.508Z,2.72
2023-04-24T08:21:43.518Z,2.95
2023-04-24T08:24:11.699Z,2.50
2023-04-24T08:26:39.634Z,2.78
2023-04-24T08:29:08.106Z,2.60
2023-04-24T08:31:37.007Z,1.87
2023-04-24T08:34:04.997Z,2.50
2023-04-24T08:36:43.919Z,2.47
2023-04-24T08:39:27.830Z,2.53
2023-04-24T08:41:57.128Z,2.87
2023-04-24T08:44:25.398Z,2.67
2023-04-24T08:46:55.378Z,2.00
2023-04-24T08:49:27.225Z,2.20
2023-04-24T08:51:56.121Z,2.22
2023-04-24T08:54:24.828Z,2.97
2023-04-24T08:57:00.139Z,2.22
2023-04-24T08:59:29.789Z,3.15
2023-04-24T09:01:58.789Z,3.72
2023-04-24T09:04:27.378Z,3.35
2023-04-24T09:06:58.253Z,2.85
2023-04-24T09:09:26.985Z,2.80
2023-04-24T09:11:56.838Z,2.75
2023-04-24T09:14:25.648Z,3.03
2023-04-24T09:16:53.882Z,3.40
2023-04-24T09:19:23.716Z,2.58
2023-04-24T09:21:54.436Z,2.62
2023-04-24T09:24:26.111Z,2.70
2023-04-24T09:27:00.260Z,2.50
2023-04-24T09:29:29.616Z,2.55
2023-04-24T09:31:57.600Z,2.60
2023-04-24T09:34:27.510Z,2.58
2023-04-24T09:36:56.540Z,3.45
2023-04-24T09:39:24.573Z,3.30
2023-04-24T09:41:55.060Z,3.15
2023-04-24T09:44:25.679Z,2.40
2023-04-24T09:46:56.240Z,3.45
2023-04-24T09:49:31.614Z,2.80
2023-04-24T09:52:08.244Z,1.62
2023-04-24T09:54:38.210Z,2.83
2023-04-24T09:57:08.855Z,2.20
2023-04-24T09:59:44.638Z,2.67
2023-04-24T10:02:22.405Z,2.35
2023-04-24T10:05:01.053Z,2.72
2023-04-24T10:07:34.690Z,1.87
2023-04-24T10:10:03.083Z,2.15
2023-04-24T10:12:32.303Z,2.20
2023-04-24T10:15:00.808Z,2.00
2023-04-24T10:17:32.734Z,2.15
2023-04-24T10:20:03.175Z,2.37
2023-04-24T10:22:33.665Z,2.00
2023-04-24T10:25:01.762Z,2.70
2023-04-24T10:27:32.409Z,2.60
2023-04-24T10:30:03.126Z,2.33
2023-04-24T10:32:32.513Z,2.83
2023-04-24T10:35:01.362Z,2.15
2023-04-24T10:37:41.701Z,2.35
2023-04-24T10:40:11.294Z,2.53
2023-04-24T10:42:44.070Z,2.20
2023-04-24T10:45:20.329Z,2.20
2023-04-24T10:47:57.875Z,2.33
2023-04-24T10:50:28.905Z,2.03
2023-04-24T10:53:07.794Z,2.42
2023-04-24T10:56:00.929Z,2.47
2023-04-24T10:58:42.001Z,3.28
2023-04-24T11:01:10.469Z,2.78
2023-04-24T11:03:39.040Z,2.53
2023-04-24T11:06:09.295Z,2.55
2023-04-24T11:08:45.421Z,2.60
2023-04-24T11:11:19.658Z,2.30
2023-04-24T11:13:57.202Z,2.55
2023-04-24T11:16:39.816Z,2.45
2023-04-24T11:19:16.586Z,2.97
2023-04-24T11:21:54.419Z,2.40
2023-04-24T11:24:48.803Z,1.75
2023-04-24T11:27:21.161Z,2.47
2023-04-24T11:29:58.924Z,2.62
2023-04-24T11:32:28.818Z,2.45
2023-04-24T11:35:00.827Z,2.28
2023-04-24T11:37:42.196Z,2.30
2023-04-24T11:40:13.893Z,2.87
2023-04-24T11:42:46.252Z,1.95
2023-04-24T11:45:23.852Z,2.00
2023-04-24T11:47:52.677Z,2.20
2023-04-24T11:50:24.435Z,2.45
2023-04-24T11:52:52.497Z,2.58
2023-04-24T11:55:20.607Z,1.90
2023-04-24T11:57:51.814Z,2.35
2023-04-24T12:00:25.518Z,2.72
2023-04-24T12:03:07.946Z,2.15
2023-04-24T12:05:36.497Z,2.30
2023-04-24T12:08:06.291Z,2.37
2023-04-24T12:10:36.049Z,2.10
2023-04-24T12:13:04.595Z,3.58
2023-04-24T12:15:33.007Z,2.15
2023-04-24T12:18:00.994Z,2.25
2023-04-24T12:20:32.288Z,2.30
2023-04-24T12:23:02.491Z,1.83
2023-04-24T12:25:33.654Z,2.30
2023-04-24T12:28:04.494Z,2.47
2023-04-24T12:30:40.015Z,2.00
2023-04-24T12:33:10.912Z,2.08
2023-04-24T12:35:42.411Z,2.72
2023-04-24T12:38:15.185Z,2.28
2023-04-24T12:40:45.071Z,2.35
2023-04-24T12:43:22.347Z,2.25
2023-04-24T12:45:50.676Z,2.17
2023-04-24T12:48:18.753Z,1.60
2023-04-24T12:50:48.360Z,1.95
2023-04-24T12:53:17.515Z,2.25
2023-04-24T12:55:46.362Z,2.33
2023-04-24T12:58:14.999Z,2.40
2023-04-24T13:00:44.875Z,2.12
2023-04-24T13:03:13.727Z,2.22
2023-04-24T13:05:42.004Z,1.85
2023-04-24T13:08:10.581Z,2.03
2023-04-24T13:10:42.095Z,2.10
2023-04-24T13:13:10.385Z,3.35
2023-04-24T13:15:38.439Z,3.53
2023-04-24T13:18:06.464Z,3.05
2023-04-24T13:20:36.820Z,3.33
2023-04-24T13:23:07.965Z,3.62
2023-04-24T13:25:38.710Z,2.97
2023-04-24T13:28:06.877Z,2.10
2023-04-24T13:30:34.897Z,1.55
2023-04-24T13:33:03.365Z,2.75
2023-04-24T13:35:31.429Z,2.25
2023-04-24T13:38:02.877Z,2.80
2023-04-24T13:40:31.585Z,1.77
2023-04-24T13:42:59.666Z,2.60
2023-04-24T13:45:28.028Z,2.40
2023-04-24T13:47:56.442Z,2.20
2023-04-24T13:50:27.593Z,3.15
2023-04-24T13:52:55.571Z,3.05
2023-04-24T13:55:24.860Z,2.65
2023-04-24T13:57:56.807Z,2.62
2023-04-24T14:00:25.263Z,2.22
2023-04-24T14:02:53.769Z,2.35
2023-04-24T14:05:23.335Z,3.40
2023-04-24T14:07:57.589Z,2.15
2023-04-24T14:10:26.989Z,2.20
2023-04-24T14:12:55.004Z,2.55
2023-04-24T14:15:23.248Z,2.10
2023-04-24T14:17:51.577Z,2.60
2023-04-24T14:20:19.539Z,2.60
2023-04-24T14:22:47.523Z,2.70
2023-04-24T14:25:16.807Z,3.15
2023-04-24T14:27:45.246Z,2.70
2023-04-24T14:30:14.821Z,2.95
2023-04-24T14:32:43.452Z,3.20
2023-04-24T14:35:11.730Z,5.30
2023-04-24T14:37:42.439Z,6.32
2023-04-24T14:40:31.974Z,8.05
2023-04-24T14:43:00.148Z,8.23
2023-04-24T14:45:32.316Z,10.13
2023-04-24T14:48:00.739Z,7.00
2023-04-24T14:50:29.741Z,5.93
2023-04-24T14:52:58.905Z,4.80
2023-04-24T14:55:27.692Z,4.07
2023-04-24T14:57:56.463Z,3.75
2023-04-24T15:00:27.346Z,3.80
2023-04-24T15:02:57.038Z,4.53
2023-04-24T15:05:26.630Z,4.57
2023-04-24T15:07:54.877Z,3.15
2023-04-24T15:10:25.158Z,4.82
2023-04-24T15:12:53.553Z,4.00
2023-04-24T15:15:21.673Z,4.78
2023-04-24T15:17:49.926Z,5.07
2023-04-24T15:20:19.354Z,5.40
2023-04-24T15:22:47.252Z,5.90
2023-04-24T15:25:15.611Z,5.78
2023-04-24T15:27:47.314Z,5.25
2023-04-24T15:30:16.033Z,5.25
2023-04-24T15:32:47.101Z,5.90
2023-04-24T15:35:16.061Z,8.80
2023-04-24T15:37:44.450Z,10.85
2023-04-24T15:40:14.672Z,10.10
2023-04-24T15:42:47.139Z,11.57
2023-04-24T15:45:15.539Z,8.35
2023-04-24T15:47:47.421Z,9.80
2023-04-24T15:50:17.609Z,9.50
2023-04-24T15:52:46.240Z,10.07
2023-04-24T15:55:14.346Z,9.57
2023-04-24T15:57:43.789Z,9.88
2023-04-24T16:00:12.901Z,9.05
2023-04-24T16:02:42.071Z,8.95
2023-04-24T16:05:11.532Z,8.30
2023-04-24T16:07:40.728Z,8.05
2023-04-24T16:10:10.315Z,8.52
2023-04-24T16:12:38.450Z,9.52
2023-04-24T16:15:07.736Z,8.40
2023-04-24T16:17:36.195Z,8.70
2023-04-24T16:20:05.687Z,8.20
2023-04-24T16:22:34.055Z,8.35
2023-04-24T16:25:02.607Z,9.32
2023-04-24T16:27:32.220Z,9.10
2023-04-24T16:30:00.461Z,9.73
2023-04-24T16:32:29.184Z,10.63
2023-04-24T16:34:57.361Z,10.02
2023-04-24T16:37:25.329Z,10.82
2023-04-24T16:39:55.408Z,11.20
2023-04-24T16:42:23.711Z,10.88
2023-04-24T16:44:52.066Z,13.38
2023-04-24T16:47:20.829Z,12.20
2023-04-24T16:49:50.051Z,12.32
2023-04-24T16:52:18.284Z,11.27
2023-04-24T16:54:46.947Z,11.43
2023-04-24T16:57:18.230Z,9.77
2023-04-24T16:59:46.860Z,9.90
2023-04-24T17:02:15.306Z,13.98
2023-04-24T17:04:43.475Z,11.45
2023-04-24T17:07:12.256Z,13.18
2023-04-24T17:09:41.309Z,12.30
2023-04-24T17:12:11.362Z,13.32
2023-04-24T17:14:39.994Z,13.98
2023-04-24T17:17:08.375Z,13.85
2023-04-24T17:19:36.452Z,12.18
2023-04-24T17:22:06.070Z,11.70
2023-04-24T17:24:34.627Z,10.90
2023-04-24T17:27:13.957Z,11.00
2023-04-24T17:29:43.979Z,10.93
2023-04-24T17:32:15.248Z,12.52
2023-04-24T17:34:43.863Z,11.63
2023-04-24T17:37:12.001Z,10.40
2023-04-24T17:39:39.983Z,12.73
2023-04-24T17:42:08.231Z,12.73
2023-04-24T17:44:36.215Z,13.45
2023-04-24T17:47:05.200Z,13.68
2023-04-24T17:49:33.739Z,13.70
2023-04-24T17:52:01.771Z,14.75
2023-04-24T17:54:29.729Z,8.85
2023-04-24T17:56:59.274Z,13.95
2023-04-24T17:59:27.623Z,14.30
2023-04-24T18:01:56.038Z,15.57
2023-04-24T18:04:26.700Z,14.45
2023-04-24T18:06:55.195Z,15.65
2023-04-24T18:09:23.620Z,14.60
2023-04-24T18:11:52.118Z,13.57
2023-04-24T18:14:20.202Z,13.95
2023-04-24T18:16:48.642Z,13.10
2023-04-24T18:19:22.933Z,12.70
2023-04-24T18:21:51.362Z,11.55
2023-04-24T18:24:22.765Z,14.05
2023-04-24T18:26:50.926Z,9.77
2023-04-24T18:29:18.986Z,9.77
2023-04-24T18:31:48.515Z,7.30
2023-04-24T18:34:16.798Z,8.30
2023-04-24T18:36:44.966Z,7.68
2023-04-24T18:39:14.368Z,8.20
2023-04-24T18:41:43.192Z,7.68
2023-04-24T18:44:12.243Z,7.70
2023-04-24T18:46:41.988Z,7.22
2023-04-24T18:49:10.639Z,6.53
2023-04-24T18:51:52.534Z,6.45
2023-04-24T18:54:22.614Z,6.80
2023-04-24T18:56:51.852Z,5.93
2023-04-24T18:59:21.743Z,5.97
2023-04-24T19:01:50.435Z,6.00
2023-04-24T19:04:21.072Z,5.15
2023-04-24T19:06:49.777Z,6.00
2023-04-24T19:09:17.927Z,6.50
2023-04-24T19:11:46.386Z,5.90
2023-04-24T19:14:16.768Z,6.75
2023-04-24T19:16:45.113Z,7.12
2023-04-24T19:19:13.467Z,7.40
2023-04-24T19:21:42.082Z,7.55
2023-04-24T19:24:11.326Z,7.72
2023-04-24T19:26:39.606Z,7.70
2023-04-24T19:29:08.219Z,7.47
2023-04-24T19:31:36.733Z,7.05
2023-04-24T19:34:05.122Z,8.05
2023-04-24T19:36:34.154Z,6.37
2023-04-24T19:39:02.209Z,7.20
2023-04-24T19:41:30.747Z,7.15
2023-04-24T19:43:59.303Z,6.20
2023-04-24T19:46:27.646Z,7.03
2023-04-24T19:48:55.898Z,6.65
2023-04-24T19:51:24.456Z,7.68
2023-04-24T19:53:53.012Z,7.00
2023-04-24T19:56:21.339Z,7.22
2023-04-24T19:58:50.094Z,5.28
2023-04-24T20:01:18.686Z,4.90
2023-04-24T20:03:47.205Z,5.68
2023-04-24T20:06:15.448Z,7.00
2023-04-24T20:08:43.602Z,5.50
2023-04-24T20:11:12.037Z,7.20
2023-04-24T20:13:40.089Z,6.80
2023-04-24T20:16:10.922Z,7.85
2023-04-24T20:18:39.953Z,7.45
2023-04-24T20:21:09.102Z,7.55
2023-04-24T20:23:37.174Z,6.82
2023-04-24T20:26:05.672Z,7.90
2023-04-24T20:28:33.662Z,7.28
2023-04-24T20:31:01.799Z,7.47
2023-04-24T20:33:31.112Z,6.32
2023-04-24T20:35:59.076Z,5.25
2023-04-24T20:38:27.007Z,6.40
2023-04-24T20:40:58.192Z,6.62
2023-04-24T20:43:29.862Z,8.30
2023-04-24T20:45:58.560Z,6.45
2023-04-24T20:48:27.245Z,6.70
2023-04-24T20:50:56.290Z,6.82
2023-04-24T20:53:25.115Z,6.70
2023-04-24T20:55:53.221Z,6.45
2023-04-24T20:58:23.249Z,6.20
2023-04-24T21:00:55.246Z,6.30
2023-04-24T21:03:30.872Z,6.03
2023-04-24T21:05:59.553Z,6.37
2023-04-24T21:08:27.532Z,5.82
2023-04-24T21:10:55.558Z,6.18
2023-04-24T21:13:24.260Z,7.07
2023-04-24T21:15:52.390Z,5.65
2023-04-24T21:18:20.368Z,6.60
2023-04-24T21:20:50.208Z,6.47
2023-04-24T21:23:18.183Z,6.22
2023-04-24T21:25:46.371Z,6.10
2023-04-24T21:28:14.937Z,5.97
2023-04-24T21:30:43.092Z,6.35
2023-04-24T21:33:12.696Z,5.70
2023-04-24T21:35:41.650Z,6.25
2023-04-24T21:38:09.820Z,6.37
2023-04-24T21:40:37.679Z,7.12
2023-04-24T21:43:06.211Z,6.45
2023-04-24T21:45:34.164Z,7.20
2023-04-24T21:48:02.339Z,6.78
2023-04-24T21:50:31.010Z,7.43
2023-04-24T21:52:59.024Z,6.30
2023-04-24T21:55:27.448Z,6.22
2023-04-24T21:57:56.394Z,5.15
2023-04-24T22:00:25.142Z,6.60
2023-04-24T22:02:53.614Z,5.62
2023-04-24T22:05:21.678Z,6.22
2023-04-24T22:07:51.180Z,5.10
2023-04-24T22:10:19.466Z,5.60
2023-04-24T22:12:47.751Z,6.10
2023-04-24T22:15:15.809Z,5.07
2023-04-24T22:17:44.166Z,6.10
2023-04-24T22:20:13.244Z,5.97
2023-04-24T22:22:41.163Z,5.75
2023-04-24T22:25:09.903Z,6.62
2023-04-24T22:27:37.871Z,6.37
2023-04-24T22:30:06.597Z,6.90
2023-04-24T22:32:35.321Z,6.70
2023-04-24T22:35:03.478Z,6.45
2023-04-24T22:37:32.919Z,6.72
2023-04-24T22:40:01.674Z,6.82
2023-04-24T22:42:32.212Z,7.78
2023-04-24T22:45:00.217Z,8.25
2023-04-24T22:47:28.776Z,6.47
2023-04-24T22:49:58.116Z,8.02
2023-04-24T22:52:26.566Z,6.68
2023-04-24T22:54:54.856Z,6.50
2023-04-24T22:57:22.677Z,7.75
2023-04-24T22:59:50.608Z,7.65
2023-04-24T23:02:18.886Z,7.32
2023-04-24T23:04:46.908Z,6.97
2023-04-24T23:07:16.051Z,5.32
2023-04-24T23:09:44.166Z,6.05
2023-04-24T23:12:12.037Z,6.78
2023-04-24T23:14:40.020Z,5.75
2023-04-24T23:17:08.531Z,4.90
2023-04-24T23:19:36.483Z,5.45
2023-04-24T23:22:04.418Z,5.68
2023-04-24T23:24:32.919Z,5.55
2023-04-24T23:27:02.056Z,5.45
2023-04-24T23:29:30.031Z,5.93
2023-04-24T23:31:58.349Z,4.97
2023-04-24T23:34:26.320Z,4.87
2023-04-24T23:36:54.490Z,4.65
2023-04-24T23:39:22.707Z,4.72
2023-04-24T23:41:54.282Z,5.10
2023-04-24T23:44:22.535Z,4.68
2023-04-24T23:46:50.378Z,5.32
2023-04-24T23:49:18.313Z,5.30
2023-04-24T23:51:46.788Z,5.43
2023-04-24T23:54:14.766Z,5.93
2023-04-24T23:56:42.710Z,5.70
2023-04-24T23:59:10.985Z,5.30
